sensor_id;sensor_type;location;lat;lon;timestamp;pressure;altitude;pressure_sealevel;temperature;humidity
73952;BME280;62304;47.662;18.324;2023-06-10T00:01:19;99890.19;;;17.12;100.00
73952;BME280;62304;47.662;18.324;2023-06-10T00:04:22;99889.97;;;17.26;100.00
73952;BME280;62304;47.662;18.324;2023-06-10T00:07:25;99890.81;;;17.23;100.00
73952;BME280;62304;47.662;18.324;2023-06-10T00:10:28;99890.09;;;17.19;100.00
73952;BME280;62304;47.662;18.324;2023-06-10T00:13:31;99886.69;;;17.31;100.00
73952;BME280;62304;47.662;18.324;2023-06-10T00:16:34;99888.63;;;17.34;100.00
73952;BME280;62304;47.662;18.324;2023-06-10T00:19:38;99891.72;;;17.43;100.00
73952;BME280;62304;47.662;18.324;2023-06-10T00:22:44;99897.19;;;17.50;100.00
73952;BME280;62304;47.662;18.324;2023-06-10T00:25:48;99897.50;;;17.32;100.00
73952;BME280;62304;47.662;18.324;2023-06-10T00:28:51;99891.06;;;17.32;100.00
73952;BME280;62304;47.662;18.324;2023-06-10T00:31:56;99894.75;;;17.02;100.00
73952;BME280;62304;47.662;18.324;2023-06-10T00:35:00;99895.22;;;17.24;100.00
73952;BME280;62304;47.662;18.324;2023-06-10T00:38:06;99890.41;;;17.24;100.00
73952;BME280;62304;47.662;18.324;2023-06-10T00:41:09;99893.19;;;17.24;100.00
73952;BME280;62304;47.662;18.324;2023-06-10T00:44:12;99880.16;;;17.41;100.00
73952;BME280;62304;47.662;18.324;2023-06-10T00:47:17;99877.28;;;17.44;100.00
73952;BME280;62304;47.662;18.324;2023-06-10T00:50:20;99885.63;;;17.48;100.00
73952;BME280;62304;47.662;18.324;2023-06-10T00:53:23;99882.16;;;17.40;100.00
73952;BME280;62304;47.662;18.324;2023-06-10T00:56:27;99876.06;;;17.45;100.00
73952;BME280;62304;47.662;18.324;2023-06-10T00:59:31;99872.56;;;17.38;100.00
73952;BME280;62304;47.662;18.324;2023-06-10T01:02:34;99873.84;;;17.33;100.00
73952;BME280;62304;47.662;18.324;2023-06-10T01:05:38;99879.34;;;17.40;100.00
73952;BME280;62304;47.662;18.324;2023-06-10T01:08:54;99880.78;;;17.25;100.00
73952;BME280;62304;47.662;18.324;2023-06-10T01:12:05;99873.31;;;17.42;100.00
73952;BME280;62304;47.662;18.324;2023-06-10T01:15:12;99888.69;;;17.30;100.00
73952;BME280;62304;47.662;18.324;2023-06-10T01:18:15;99883.22;;;17.23;100.00
73952;BME280;62304;47.662;18.324;2023-06-10T01:21:22;99892.09;;;17.18;100.00
73952;BME280;62304;47.662;18.324;2023-06-10T01:24:29;99885.06;;;17.33;100.00
73952;BME280;62304;47.662;18.324;2023-06-10T01:27:37;99887.59;;;17.24;100.00
73952;BME280;62304;47.662;18.324;2023-06-10T01:31:05;99891.41;;;17.37;99.51
73952;BME280;62304;47.662;18.324;2023-06-10T01:34:13;99890.31;;;17.31;99.66
73952;BME280;62304;47.662;18.324;2023-06-10T01:37:19;99889.63;;;17.24;99.70
73952;BME280;62304;47.662;18.324;2023-06-10T01:40:25;99895.66;;;17.22;99.81
73952;BME280;62304;47.662;18.324;2023-06-10T01:43:33;99886.75;;;17.27;99.13
73952;BME280;62304;47.662;18.324;2023-06-10T01:46:37;99895.50;;;17.06;99.50
73952;BME280;62304;47.662;18.324;2023-06-10T01:49:40;99902.28;;;17.09;99.89
73952;BME280;62304;47.662;18.324;2023-06-10T01:52:43;99900.44;;;16.99;99.95
73952;BME280;62304;47.662;18.324;2023-06-10T01:55:46;99888.47;;;16.95;99.56
73952;BME280;62304;47.662;18.324;2023-06-10T01:58:49;99887.69;;;16.94;99.70
73952;BME280;62304;47.662;18.324;2023-06-10T02:01:52;99882.09;;;16.94;99.16
73952;BME280;62304;47.662;18.324;2023-06-10T02:04:55;99880.19;;;16.88;100.00
73952;BME280;62304;47.662;18.324;2023-06-10T02:07:59;99878.63;;;16.57;100.00
73952;BME280;62304;47.662;18.324;2023-06-10T02:11:03;99884.53;;;16.66;100.00
73952;BME280;62304;47.662;18.324;2023-06-10T02:14:06;99879.50;;;16.80;100.00
73952;BME280;62304;47.662;18.324;2023-06-10T02:17:09;99879.50;;;16.80;99.66
73952;BME280;62304;47.662;18.324;2023-06-10T02:20:17;99882.25;;;16.84;99.40
73952;BME280;62304;47.662;18.324;2023-06-10T02:23:20;99879.78;;;16.89;99.02
73952;BME280;62304;47.662;18.324;2023-06-10T02:26:26;99885.97;;;16.77;99.23
73952;BME280;62304;47.662;18.324;2023-06-10T02:29:35;99888.13;;;16.66;100.00
73952;BME280;62304;47.662;18.324;2023-06-10T02:32:38;99887.47;;;16.55;100.00
73952;BME280;62304;47.662;18.324;2023-06-10T02:35:48;99886.63;;;16.58;100.00
73952;BME280;62304;47.662;18.324;2023-06-10T02:38:51;99891.19;;;16.75;100.00
73952;BME280;62304;47.662;18.324;2023-06-10T02:41:54;99875.38;;;16.62;99.84
73952;BME280;62304;47.662;18.324;2023-06-10T02:44:57;99877.69;;;16.67;99.48
73952;BME280;62304;47.662;18.324;2023-06-10T02:48:05;99881.19;;;16.74;99.49
73952;BME280;62304;47.662;18.324;2023-06-10T02:51:10;99879.97;;;16.75;98.78
73952;BME280;62304;47.662;18.324;2023-06-10T02:54:13;99880.97;;;16.62;98.87
73952;BME280;62304;47.662;18.324;2023-06-10T02:57:16;99878.81;;;16.46;99.64
73952;BME280;62304;47.662;18.324;2023-06-10T03:00:20;99889.25;;;16.42;100.00
73952;BME280;62304;47.662;18.324;2023-06-10T03:03:24;99883.69;;;16.39;100.00
73952;BME280;62304;47.662;18.324;2023-06-10T03:06:29;99888.59;;;16.28;100.00
73952;BME280;62304;47.662;18.324;2023-06-10T03:09:34;99883.97;;;16.14;100.00
73952;BME280;62304;47.662;18.324;2023-06-10T03:12:38;99873.84;;;15.94;100.00
73952;BME280;62304;47.662;18.324;2023-06-10T03:15:41;99882.59;;;15.96;100.00
73952;BME280;62304;47.662;18.324;2023-06-10T03:18:45;99891.00;;;15.96;100.00
73952;BME280;62304;47.662;18.324;2023-06-10T03:21:50;99889.09;;;15.89;100.00
73952;BME280;62304;47.662;18.324;2023-06-10T03:24:58;99883.22;;;15.77;100.00
73952;BME280;62304;47.662;18.324;2023-06-10T03:28:02;99891.34;;;15.64;100.00
73952;BME280;62304;47.662;18.324;2023-06-10T03:31:06;99899.00;;;15.57;100.00
73952;BME280;62304;47.662;18.324;2023-06-10T03:34:08;99899.44;;;15.55;100.00
73952;BME280;62304;47.662;18.324;2023-06-10T03:37:11;99899.81;;;15.57;100.00
73952;BME280;62304;47.662;18.324;2023-06-10T03:40:14;99901.00;;;15.60;100.00
73952;BME280;62304;47.662;18.324;2023-06-10T03:43:18;99910.97;;;15.61;100.00
73952;BME280;62304;47.662;18.324;2023-06-10T03:46:21;99910.44;;;15.73;100.00
73952;BME280;62304;47.662;18.324;2023-06-10T03:49:25;99896.75;;;15.82;100.00
73952;BME280;62304;47.662;18.324;2023-06-10T03:52:30;99905.25;;;15.71;100.00
73952;BME280;62304;47.662;18.324;2023-06-10T03:55:34;99914.09;;;15.66;100.00
73952;BME280;62304;47.662;18.324;2023-06-10T03:58:40;99913.72;;;15.64;100.00
73952;BME280;62304;47.662;18.324;2023-06-10T04:01:47;99914.94;;;15.63;100.00
73952;BME280;62304;47.662;18.324;2023-06-10T04:04:50;99921.22;;;15.74;100.00
73952;BME280;62304;47.662;18.324;2023-06-10T04:07:54;99913.25;;;15.69;100.00
73952;BME280;62304;47.662;18.324;2023-06-10T04:10:58;99910.81;;;15.75;100.00
73952;BME280;62304;47.662;18.324;2023-06-10T04:14:02;99906.31;;;15.84;100.00
73952;BME280;62304;47.662;18.324;2023-06-10T04:17:05;99907.38;;;15.97;100.00
73952;BME280;62304;47.662;18.324;2023-06-10T04:20:12;99908.50;;;16.03;100.00
73952;BME280;62304;47.662;18.324;2023-06-10T04:23:16;99903.91;;;15.86;100.00
73952;BME280;62304;47.662;18.324;2023-06-10T04:26:19;99908.63;;;15.93;100.00
73952;BME280;62304;47.662;18.324;2023-06-10T04:29:23;99902.75;;;15.80;100.00
73952;BME280;62304;47.662;18.324;2023-06-10T04:32:27;99917.09;;;15.86;100.00
73952;BME280;62304;47.662;18.324;2023-06-10T04:35:30;99916.13;;;16.03;100.00
73952;BME280;62304;47.662;18.324;2023-06-10T04:38:34;99906.38;;;16.14;100.00
73952;BME280;62304;47.662;18.324;2023-06-10T04:41:37;99918.22;;;16.25;100.00
73952;BME280;62304;47.662;18.324;2023-06-10T04:44:41;99915.34;;;16.32;100.00
73952;BME280;62304;47.662;18.324;2023-06-10T04:47:44;99908.47;;;16.40;100.00
73952;BME280;62304;47.662;18.324;2023-06-10T04:50:47;99914.38;;;16.49;100.00
73952;BME280;62304;47.662;18.324;2023-06-10T04:53:50;99915.16;;;16.50;100.00
73952;BME280;62304;47.662;18.324;2023-06-10T04:56:54;99919.09;;;16.52;100.00
73952;BME280;62304;47.662;18.324;2023-06-10T04:59:57;99915.38;;;16.62;100.00
73952;BME280;62304;47.662;18.324;2023-06-10T05:03:00;99914.44;;;16.72;100.00
73952;BME280;62304;47.662;18.324;2023-06-10T05:06:03;99917.50;;;16.81;100.00
73952;BME280;62304;47.662;18.324;2023-06-10T05:09:06;99907.44;;;16.87;100.00
73952;BME280;62304;47.662;18.324;2023-06-10T05:12:10;99916.87;;;16.97;100.00
73952;BME280;62304;47.662;18.324;2023-06-10T05:15:12;99914.38;;;17.02;100.00
73952;BME280;62304;47.662;18.324;2023-06-10T05:18:16;99916.19;;;16.89;100.00
73952;BME280;62304;47.662;18.324;2023-06-10T05:21:19;99914.03;;;17.00;100.00
73952;BME280;62304;47.662;18.324;2023-06-10T05:24:23;99915.28;;;17.22;100.00
73952;BME280;62304;47.662;18.324;2023-06-10T05:27:26;99916.09;;;17.19;100.00
73952;BME280;62304;47.662;18.324;2023-06-10T05:30:29;99923.19;;;17.27;100.00
73952;BME280;62304;47.662;18.324;2023-06-10T05:33:32;99918.44;;;17.24;100.00
73952;BME280;62304;47.662;18.324;2023-06-10T05:36:35;99921.41;;;17.40;100.00
73952;BME280;62304;47.662;18.324;2023-06-10T05:39:38;99918.72;;;17.56;100.00
73952;BME280;62304;47.662;18.324;2023-06-10T05:42:41;99922.19;;;17.64;100.00
73952;BME280;62304;47.662;18.324;2023-06-10T05:45:44;99912.75;;;17.77;100.00
73952;BME280;62304;47.662;18.324;2023-06-10T05:48:47;99918.94;;;17.88;100.00
73952;BME280;62304;47.662;18.324;2023-06-10T05:51:53;99919.81;;;18.05;100.00
73952;BME280;62304;47.662;18.324;2023-06-10T05:54:56;99927.31;;;18.11;100.00
73952;BME280;62304;47.662;18.324;2023-06-10T05:57:59;99927.88;;;18.22;100.00
73952;BME280;62304;47.662;18.324;2023-06-10T06:01:03;99929.22;;;18.37;100.00
73952;BME280;62304;47.662;18.324;2023-06-10T06:04:06;99936.38;;;18.19;100.00
73952;BME280;62304;47.662;18.324;2023-06-10T06:07:09;99932.03;;;18.37;100.00
73952;BME280;62304;47.662;18.324;2023-06-10T06:10:12;99913.88;;;18.42;100.00
73952;BME280;62304;47.662;18.324;2023-06-10T06:13:15;99937.97;;;18.59;100.00
73952;BME280;62304;47.662;18.324;2023-06-10T06:16:18;99926.31;;;18.60;100.00
73952;BME280;62304;47.662;18.324;2023-06-10T06:19:22;99927.81;;;18.65;100.00
73952;BME280;62304;47.662;18.324;2023-06-10T06:22:25;99932.37;;;18.39;99.90
73952;BME280;62304;47.662;18.324;2023-06-10T06:25:28;99923.44;;;18.44;100.00
73952;BME280;62304;47.662;18.324;2023-06-10T06:28:31;99921.38;;;18.48;99.25
73952;BME280;62304;47.662;18.324;2023-06-10T06:31:36;99926.88;;;18.71;99.21
73952;BME280;62304;47.662;18.324;2023-06-10T06:34:39;99928.53;;;18.69;98.18
73952;BME280;62304;47.662;18.324;2023-06-10T06:37:42;99926.66;;;18.98;98.53
73952;BME280;62304;47.662;18.324;2023-06-10T06:40:46;99934.19;;;19.20;97.96
73952;BME280;62304;47.662;18.324;2023-06-10T06:43:50;99929.28;;;19.24;96.97
73952;BME280;62304;47.662;18.324;2023-06-10T06:46:53;99927.16;;;19.28;95.61
73952;BME280;62304;47.662;18.324;2023-06-10T06:49:56;99934.13;;;18.88;95.60
73952;BME280;62304;47.662;18.324;2023-06-10T06:53:00;99939.22;;;19.29;95.14
73952;BME280;62304;47.662;18.324;2023-06-10T06:56:03;99940.09;;;19.42;92.63
73952;BME280;62304;47.662;18.324;2023-06-10T06:59:06;99943.72;;;19.58;92.82
73952;BME280;62304;47.662;18.324;2023-06-10T07:02:10;99935.91;;;19.94;93.03
73952;BME280;62304;47.662;18.324;2023-06-10T07:05:13;99936.81;;;19.91;90.05
73952;BME280;62304;47.662;18.324;2023-06-10T07:08:16;99942.84;;;20.05;88.56
73952;BME280;62304;47.662;18.324;2023-06-10T07:11:19;99949.19;;;20.38;89.99
73952;BME280;62304;47.662;18.324;2023-06-10T07:14:22;99948.91;;;20.20;87.98
73952;BME280;62304;47.662;18.324;2023-06-10T07:17:28;99953.34;;;20.74;87.50
73952;BME280;62304;47.662;18.324;2023-06-10T07:20:31;99945.97;;;21.68;85.07
73952;BME280;62304;47.662;18.324;2023-06-10T07:23:34;99939.28;;;21.74;82.14
73952;BME280;62304;47.662;18.324;2023-06-10T07:26:37;99939.37;;;22.39;82.09
73952;BME280;62304;47.662;18.324;2023-06-10T07:29:41;99938.28;;;22.58;79.12
73952;BME280;62304;47.662;18.324;2023-06-10T07:32:43;99940.28;;;22.48;78.53
73952;BME280;62304;47.662;18.324;2023-06-10T07:35:49;99938.06;;;22.31;80.59
73952;BME280;62304;47.662;18.324;2023-06-10T07:38:52;99931.19;;;22.53;79.61
73952;BME280;62304;47.662;18.324;2023-06-10T07:41:56;99934.19;;;23.11;79.12
73952;BME280;62304;47.662;18.324;2023-06-10T07:45:00;99939.44;;;23.21;77.14
73952;BME280;62304;47.662;18.324;2023-06-10T07:48:03;99932.59;;;23.98;73.91
73952;BME280;62304;47.662;18.324;2023-06-10T07:51:06;99928.34;;;24.29;73.75
73952;BME280;62304;47.662;18.324;2023-06-10T07:54:09;99932.53;;;24.88;70.99
73952;BME280;62304;47.662;18.324;2023-06-10T07:57:19;99925.37;;;25.52;67.73
73952;BME280;62304;47.662;18.324;2023-06-10T08:00:23;99932.19;;;25.04;68.88
73952;BME280;62304;47.662;18.324;2023-06-10T08:03:27;99928.34;;;24.47;69.12
73952;BME280;62304;47.662;18.324;2023-06-10T08:06:30;99935.44;;;24.34;70.93
73952;BME280;62304;47.662;18.324;2023-06-10T08:09:33;99931.28;;;24.89;68.42
73952;BME280;62304;47.662;18.324;2023-06-10T08:12:36;99929.62;;;25.15;68.37
73952;BME280;62304;47.662;18.324;2023-06-10T08:15:39;99935.38;;;25.38;66.27
73952;BME280;62304;47.662;18.324;2023-06-10T08:18:42;99917.75;;;25.81;63.27
73952;BME280;62304;47.662;18.324;2023-06-10T08:21:46;99920.59;;;25.25;65.67
73952;BME280;62304;47.662;18.324;2023-06-10T08:24:49;99926.50;;;25.04;66.21
73952;BME280;62304;47.662;18.324;2023-06-10T08:27:52;99923.59;;;24.53;68.18
73952;BME280;62304;47.662;18.324;2023-06-10T08:30:55;99917.47;;;24.28;68.96
73952;BME280;62304;47.662;18.324;2023-06-10T08:33:59;99918.75;;;24.09;69.03
73952;BME280;62304;47.662;18.324;2023-06-10T08:37:03;99922.81;;;24.62;68.64
73952;BME280;62304;47.662;18.324;2023-06-10T08:40:07;99918.22;;;25.24;66.18
73952;BME280;62304;47.662;18.324;2023-06-10T08:43:20;99910.50;;;25.80;64.64
73952;BME280;62304;47.662;18.324;2023-06-10T08:46:25;99917.72;;;25.90;64.33
73952;BME280;62304;47.662;18.324;2023-06-10T08:49:30;99913.34;;;25.57;63.59
73952;BME280;62304;47.662;18.324;2023-06-10T08:52:35;99911.03;;;25.05;65.29
73952;BME280;62304;47.662;18.324;2023-06-10T08:55:46;99917.28;;;25.27;64.43
73952;BME280;62304;47.662;18.324;2023-06-10T08:58:51;99913.03;;;24.81;65.32
73952;BME280;62304;47.662;18.324;2023-06-10T09:01:55;99918.97;;;24.92;65.59
73952;BME280;62304;47.662;18.324;2023-06-10T09:04:59;99907.25;;;25.08;65.33
73952;BME280;62304;47.662;18.324;2023-06-10T09:08:03;99901.31;;;25.85;63.18
73952;BME280;62304;47.662;18.324;2023-06-10T09:11:06;99891.19;;;27.04;60.92
73952;BME280;62304;47.662;18.324;2023-06-10T09:14:09;99888.09;;;26.87;59.41
73952;BME280;62304;47.662;18.324;2023-06-10T09:17:12;99906.09;;;26.03;61.41
73952;BME280;62304;47.662;18.324;2023-06-10T09:20:15;99911.44;;;25.30;64.40
73952;BME280;62304;47.662;18.324;2023-06-10T09:23:18;99897.75;;;25.11;65.34
73952;BME280;62304;47.662;18.324;2023-06-10T09:26:28;99901.69;;;24.81;66.54
73952;BME280;62304;47.662;18.324;2023-06-10T09:29:52;99909.44;;;24.26;68.54
73952;BME280;62304;47.662;18.324;2023-06-10T09:32:57;99903.97;;;23.38;70.79
73952;BME280;62304;47.662;18.324;2023-06-10T09:36:02;99894.91;;;23.13;72.83
73952;BME280;62304;47.662;18.324;2023-06-10T09:39:14;99894.06;;;23.03;73.54
73952;BME280;62304;47.662;18.324;2023-06-10T09:42:18;99900.97;;;23.33;73.05
73952;BME280;62304;47.662;18.324;2023-06-10T09:45:22;99895.00;;;23.40;72.86
73952;BME280;62304;47.662;18.324;2023-06-10T09:48:26;99892.91;;;24.61;68.94
73952;BME280;62304;47.662;18.324;2023-06-10T09:51:28;99891.81;;;25.88;65.09
73952;BME280;62304;47.662;18.324;2023-06-10T09:54:32;99882.69;;;26.75;61.78
73952;BME280;62304;47.662;18.324;2023-06-10T09:57:34;99890.44;;;26.22;59.88
73952;BME280;62304;47.662;18.324;2023-06-10T10:00:39;99886.87;;;26.50;60.82
73952;BME280;62304;47.662;18.324;2023-06-10T10:03:46;99880.97;;;27.61;58.02
73952;BME280;62304;47.662;18.324;2023-06-10T10:06:50;99882.97;;;27.40;57.08
73952;BME280;62304;47.662;18.324;2023-06-10T10:09:53;99874.94;;;27.39;60.73
73952;BME280;62304;47.662;18.324;2023-06-10T10:12:56;99868.69;;;28.15;57.27
73952;BME280;62304;47.662;18.324;2023-06-10T10:16:11;99878.87;;;28.21;55.95
73952;BME280;62304;47.662;18.324;2023-06-10T10:19:23;99869.28;;;28.70;54.74
73952;BME280;62304;47.662;18.324;2023-06-10T10:22:34;99867.62;;;29.14;53.28
73952;BME280;62304;47.662;18.324;2023-06-10T10:25:41;99866.31;;;29.15;53.49
73952;BME280;62304;47.662;18.324;2023-06-10T10:28:48;99857.00;;;29.57;50.87
73952;BME280;62304;47.662;18.324;2023-06-10T10:31:56;99870.34;;;29.76;51.54
73952;BME280;62304;47.662;18.324;2023-06-10T10:38:04;99856.81;;;29.71;52.23
73952;BME280;62304;47.662;18.324;2023-06-10T10:41:08;99850.94;;;29.97;50.38
73952;BME280;62304;47.662;18.324;2023-06-10T10:44:12;99855.44;;;29.56;50.22
73952;BME280;62304;47.662;18.324;2023-06-10T10:47:21;99859.75;;;29.88;51.01
73952;BME280;62304;47.662;18.324;2023-06-10T10:50:28;99852.97;;;28.70;53.62
73952;BME280;62304;47.662;18.324;2023-06-10T10:53:33;99845.16;;;29.33;51.80
73952;BME280;62304;47.662;18.324;2023-06-10T10:56:36;99840.16;;;29.64;52.42
73952;BME280;62304;47.662;18.324;2023-06-10T11:02:59;99832.91;;;30.38;50.06
73952;BME280;62304;47.662;18.324;2023-06-10T11:06:12;99825.84;;;29.59;49.24
73952;BME280;62304;47.662;18.324;2023-06-10T11:13:21;99822.97;;;30.34;49.04
73952;BME280;62304;47.662;18.324;2023-06-10T11:16:26;99821.69;;;28.87;52.46
73952;BME280;62304;47.662;18.324;2023-06-10T11:19:34;99818.56;;;28.85;52.26
73952;BME280;62304;47.662;18.324;2023-06-10T11:22:58;99815.53;;;28.12;54.20
73952;BME280;62304;47.662;18.324;2023-06-10T11:29:16;99802.59;;;29.40;49.83
73952;BME280;62304;47.662;18.324;2023-06-10T11:32:20;99809.97;;;29.58;49.41
73952;BME280;62304;47.662;18.324;2023-06-10T11:35:23;99792.41;;;29.76;48.67
73952;BME280;62304;47.662;18.324;2023-06-10T11:38:28;99798.91;;;29.87;48.29
73952;BME280;62304;47.662;18.324;2023-06-10T11:41:31;99788.94;;;28.82;51.32
73952;BME280;62304;47.662;18.324;2023-06-10T11:44:34;99797.00;;;29.15;50.14
73952;BME280;62304;47.662;18.324;2023-06-10T11:47:40;99796.94;;;30.10;47.24
73952;BME280;62304;47.662;18.324;2023-06-10T11:50:43;99788.91;;;30.41;47.23
73952;BME280;62304;47.662;18.324;2023-06-10T11:53:50;99786.84;;;30.97;47.15
73952;BME280;62304;47.662;18.324;2023-06-10T11:56:57;99785.81;;;30.39;47.53
73952;BME280;62304;47.662;18.324;2023-06-10T12:00:08;99786.81;;;30.36;47.06
73952;BME280;62304;47.662;18.324;2023-06-10T12:03:12;99790.44;;;30.20;48.66
73952;BME280;62304;47.662;18.324;2023-06-10T12:06:16;99787.03;;;29.47;47.42
73952;BME280;62304;47.662;18.324;2023-06-10T12:09:21;99774.81;;;30.10;47.87
73952;BME280;62304;47.662;18.324;2023-06-10T12:12:29;99775.34;;;30.14;48.08
73952;BME280;62304;47.662;18.324;2023-06-10T12:15:32;99774.88;;;30.49;47.28
73952;BME280;62304;47.662;18.324;2023-06-10T12:18:35;99777.34;;;29.86;49.26
73952;BME280;62304;47.662;18.324;2023-06-10T12:21:38;99782.44;;;29.60;49.25
73952;BME280;62304;47.662;18.324;2023-06-10T12:25:03;99773.03;;;29.49;49.09
73952;BME280;62304;47.662;18.324;2023-06-10T12:28:10;99764.50;;;29.54;48.68
73952;BME280;62304;47.662;18.324;2023-06-10T12:31:14;99766.97;;;30.00;47.80
73952;BME280;62304;47.662;18.324;2023-06-10T12:34:16;99754.66;;;29.61;47.98
73952;BME280;62304;47.662;18.324;2023-06-10T12:37:20;99749.09;;;30.54;46.60
73952;BME280;62304;47.662;18.324;2023-06-10T12:40:27;99746.66;;;29.81;47.48
73952;BME280;62304;47.662;18.324;2023-06-10T12:43:31;99735.91;;;29.54;48.63
73952;BME280;62304;47.662;18.324;2023-06-10T12:46:38;99743.72;;;29.06;49.00
73952;BME280;62304;47.662;18.324;2023-06-10T12:49:41;99732.59;;;27.70;51.89
73952;BME280;62304;47.662;18.324;2023-06-10T12:52:44;99735.50;;;27.30;49.79
73952;BME280;62304;47.662;18.324;2023-06-10T12:55:47;99730.78;;;27.67;49.64
73952;BME280;62304;47.662;18.324;2023-06-10T12:58:50;99724.31;;;28.17;46.42
73952;BME280;62304;47.662;18.324;2023-06-10T13:01:54;99723.31;;;27.95;49.19
73952;BME280;62304;47.662;18.324;2023-06-10T13:04:57;99716.53;;;29.22;47.87
73952;BME280;62304;47.662;18.324;2023-06-10T13:08:00;99715.53;;;29.36;46.64
73952;BME280;62304;47.662;18.324;2023-06-10T13:11:03;99721.88;;;28.36;47.83
73952;BME280;62304;47.662;18.324;2023-06-10T13:14:06;99724.13;;;27.75;49.84
73952;BME280;62304;47.662;18.324;2023-06-10T13:17:09;99720.69;;;27.06;51.01
73952;BME280;62304;47.662;18.324;2023-06-10T13:20:16;99721.28;;;26.46;52.63
73952;BME280;62304;47.662;18.324;2023-06-10T13:23:19;99720.44;;;26.55;52.41
73952;BME280;62304;47.662;18.324;2023-06-10T13:26:22;99721.63;;;26.19;53.59
73952;BME280;62304;47.662;18.324;2023-06-10T13:29:25;99722.03;;;26.56;52.92
73952;BME280;62304;47.662;18.324;2023-06-10T13:32:28;99728.66;;;26.53;51.73
73952;BME280;62304;47.662;18.324;2023-06-10T13:35:31;99725.34;;;26.40;51.00
73952;BME280;62304;47.662;18.324;2023-06-10T13:38:34;99718.06;;;26.53;51.22
73952;BME280;62304;47.662;18.324;2023-06-10T13:41:37;99711.69;;;26.93;49.13
73952;BME280;62304;47.662;18.324;2023-06-10T13:44:40;99708.81;;;27.27;47.96
73952;BME280;62304;47.662;18.324;2023-06-10T13:47:43;99710.47;;;26.99;47.84
73952;BME280;62304;47.662;18.324;2023-06-10T13:50:47;99708.41;;;27.60;47.06
73952;BME280;62304;47.662;18.324;2023-06-10T13:53:50;99699.34;;;27.81;46.75
73952;BME280;62304;47.662;18.324;2023-06-10T13:56:54;99700.00;;;28.22;47.29
73952;BME280;62304;47.662;18.324;2023-06-10T13:59:57;99699.91;;;27.85;49.17
73952;BME280;62304;47.662;18.324;2023-06-10T14:03:00;99702.88;;;27.11;50.26
73952;BME280;62304;47.662;18.324;2023-06-10T14:06:04;99705.75;;;26.13;52.41
73952;BME280;62304;47.662;18.324;2023-06-10T14:09:07;99704.63;;;25.81;55.51
73952;BME280;62304;47.662;18.324;2023-06-10T14:12:10;99698.63;;;26.52;53.46
73952;BME280;62304;47.662;18.324;2023-06-10T14:15:13;99714.81;;;27.15;53.61
73952;BME280;62304;47.662;18.324;2023-06-10T14:18:16;99714.72;;;27.24;54.68
73952;BME280;62304;47.662;18.324;2023-06-10T14:21:19;99708.75;;;27.22;54.86
73952;BME280;62304;47.662;18.324;2023-06-10T14:24:22;99718.53;;;27.01;56.86
73952;BME280;62304;47.662;18.324;2023-06-10T14:27:25;99723.56;;;26.91;55.59
73952;BME280;62304;47.662;18.324;2023-06-10T14:30:28;99723.25;;;27.44;55.78
73952;BME280;62304;47.662;18.324;2023-06-10T14:33:31;99717.53;;;27.84;54.94
73952;BME280;62304;47.662;18.324;2023-06-10T14:36:35;99710.97;;;27.78;54.92
73952;BME280;62304;47.662;18.324;2023-06-10T14:39:37;99727.81;;;27.56;55.19
73952;BME280;62304;47.662;18.324;2023-06-10T14:42:41;99722.12;;;27.36;56.19
73952;BME280;62304;47.662;18.324;2023-06-10T14:45:44;99716.47;;;27.61;55.31
73952;BME280;62304;47.662;18.324;2023-06-10T14:48:48;99715.22;;;27.42;55.77
73952;BME280;62304;47.662;18.324;2023-06-10T14:51:52;99708.84;;;27.53;55.57
73952;BME280;62304;47.662;18.324;2023-06-10T14:54:55;99713.94;;;26.69;54.74
73952;BME280;62304;47.662;18.324;2023-06-10T14:57:57;99713.13;;;25.52;56.56
73952;BME280;62304;47.662;18.324;2023-06-10T15:01:00;99719.56;;;24.91;59.44
73952;BME280;62304;47.662;18.324;2023-06-10T15:04:05;99717.03;;;24.28;60.03
73952;BME280;62304;47.662;18.324;2023-06-10T15:07:09;99725.09;;;24.12;59.63
73952;BME280;62304;47.662;18.324;2023-06-10T15:10:12;99732.06;;;24.43;58.55
73952;BME280;62304;47.662;18.324;2023-06-10T15:13:15;99737.41;;;24.09;59.16
73952;BME280;62304;47.662;18.324;2023-06-10T15:16:18;99732.56;;;23.91;60.71
73952;BME280;62304;47.662;18.324;2023-06-10T15:19:21;99735.09;;;23.89;61.00
73952;BME280;62304;47.662;18.324;2023-06-10T15:22:24;99727.97;;;23.94;61.48
73952;BME280;62304;47.662;18.324;2023-06-10T15:25:27;99732.84;;;23.84;62.71
73952;BME280;62304;47.662;18.324;2023-06-10T15:28:33;99732.22;;;23.71;63.48
73952;BME280;62304;47.662;18.324;2023-06-10T15:31:36;99730.50;;;23.83;64.45
73952;BME280;62304;47.662;18.324;2023-06-10T15:34:40;99733.16;;;24.04;64.22
73952;BME280;62304;47.662;18.324;2023-06-10T15:37:46;99736.59;;;24.08;62.97
73952;BME280;62304;47.662;18.324;2023-06-10T15:40:48;99734.87;;;24.11;63.20
73952;BME280;62304;47.662;18.324;2023-06-10T15:43:51;99735.81;;;24.08;62.42
73952;BME280;62304;47.662;18.324;2023-06-10T15:46:55;99752.09;;;23.89;60.71
73952;BME280;62304;47.662;18.324;2023-06-10T15:49:58;99763.53;;;23.86;61.31
73952;BME280;62304;47.662;18.324;2023-06-10T15:53:01;99761.66;;;23.56;61.11
73952;BME280;62304;47.662;18.324;2023-06-10T15:56:04;99765.91;;;23.42;61.34
73952;BME280;62304;47.662;18.324;2023-06-10T15:59:07;99779.59;;;23.62;61.94
73952;BME280;62304;47.662;18.324;2023-06-10T16:02:11;99784.31;;;23.56;62.46
73952;BME280;62304;47.662;18.324;2023-06-10T16:05:15;99788.41;;;23.73;62.86
73952;BME280;62304;47.662;18.324;2023-06-10T16:08:18;99792.50;;;23.54;62.93
73952;BME280;62304;47.662;18.324;2023-06-10T16:11:24;99784.62;;;23.58;62.79
73952;BME280;62304;47.662;18.324;2023-06-10T16:14:28;99785.28;;;23.71;62.72